createdAt,value
2022-11-01T00:03:29.531Z,9.66627
2022-11-01T00:08:31.164Z,9.46237
2022-11-01T00:13:32.800Z,9.80728
2022-11-01T00:18:34.448Z,9.85683
2022-11-01T00:23:36.106Z,9.01901
2022-11-01T00:28:37.821Z,9.55289
2022-11-01T00:33:39.548Z,8.90499
2022-11-01T00:38:41.168Z,9.32803
2022-11-01T00:43:42.781Z,8.88022
2022-11-01T00:48:44.448Z,9.03584
2022-11-01T00:53:46.080Z,8.35556
2022-11-01T00:58:47.697Z,8.07354
2022-11-01T01:03:49.347Z,8.58835
2022-11-01T01:08:51.011Z,8.80972
2022-11-01T01:13:52.926Z,8.82337
2022-11-01T01:18:54.602Z,8.41082
2022-11-01T01:23:56.557Z,8.3581
2022-11-01T01:28:58.465Z,8.75064
2022-11-01T01:34:00.099Z,8.28505
2022-11-01T01:39:01.797Z,8.59439
2022-11-01T01:44:03.526Z,8.24059
2022-11-01T01:49:05.206Z,8.18755
2022-11-01T01:54:06.875Z,8.30951
2022-11-01T01:59:08.576Z,8.30125
2022-11-01T02:04:10.313Z,8.35143
2022-11-01T02:09:11.999Z,8.45465
2022-11-01T02:14:13.634Z,8.76049
2022-11-01T02:19:15.329Z,9.00567
2022-11-01T02:24:17.253Z,7.84519
2022-11-01T02:29:18.877Z,8.26981
2022-11-01T02:34:20.559Z,8.44385
2022-11-01T02:39:22.266Z,8.57089
2022-11-01T02:44:23.859Z,8.63853
2022-11-01T02:49:25.523Z,8.43623
2022-11-01T02:54:27.305Z,8.5242
2022-11-01T02:59:28.908Z,8.16818
2022-11-01T03:04:30.547Z,8.38128
2022-11-01T03:09:32.215Z,8.44321
2022-11-01T03:14:33.823Z,8.21328
2022-11-01T03:19:35.414Z,8.1307
2022-11-01T03:24:37.142Z,8.35206
2022-11-01T03:29:38.780Z,7.65749
2022-11-01T03:34:40.415Z,8.19422
2022-11-01T03:39:42.012Z,8.24504
2022-11-01T03:44:43.609Z,8.13705
2022-11-01T03:49:45.510Z,8.08433
2022-11-01T03:54:47.129Z,7.37611
2022-11-01T03:59:48.910Z,8.09323
2022-11-01T04:04:50.600Z,7.28591
2022-11-01T04:09:52.347Z,7.57778
2022-11-01T04:14:54.107Z,7.74038
2022-11-01T04:19:55.790Z,7.30624
2022-11-01T04:24:57.407Z,7.80898
2022-11-01T04:29:59.011Z,7.99986
2022-11-01T04:35:00.745Z,7.72006
2022-11-01T04:40:02.463Z,7.91665
2022-11-01T04:45:04.037Z,7.77691
2022-11-01T04:50:05.710Z,6.7765
2022-11-01T04:55:07.395Z,7.68068
2022-11-01T05:00:09.041Z,7.3507
2022-11-01T05:05:10.658Z,7.21986
2022-11-01T05:10:12.318Z,7.0563
2022-11-01T05:15:13.987Z,7.71148
2022-11-01T05:20:15.601Z,7.39929
2022-11-01T05:25:17.366Z,7.85249
2022-11-01T05:30:19.046Z,8.03701
2022-11-01T05:35:20.703Z,7.23256
2022-11-01T05:40:22.405Z,7.79152
2022-11-01T05:45:24.158Z,7.48599
2022-11-01T05:50:25.772Z,7.70386
2022-11-01T05:55:27.421Z,7.30973
2022-11-01T06:00:29.082Z,7.47869
2022-11-01T06:05:30.739Z,7.88743
2022-11-01T06:10:32.351Z,7.24844
2022-11-01T06:15:37.135Z,7.37611
2022-11-01T06:20:41.629Z,6.7638
2022-11-01T06:25:43.247Z,7.49806
2022-11-01T06:30:44.918Z,7.47551
2022-11-01T06:35:46.505Z,7.61176
2022-11-01T06:40:48.139Z,7.51108
2022-11-01T06:45:49.773Z,7.80581
2022-11-01T06:50:51.406Z,7.37039
2022-11-01T06:55:53.085Z,7.43073
2022-11-01T07:00:54.734Z,7.6089
2022-11-01T07:05:56.399Z,7.54665
2022-11-01T07:10:58.045Z,6.47257
2022-11-01T07:15:59.643Z,7.24907
2022-11-01T07:21:01.335Z,7.51267
2022-11-01T07:26:02.978Z,7.51235
2022-11-01T07:31:04.611Z,7.35578
2022-11-01T07:36:06.239Z,7.41835
2022-11-01T07:41:08.111Z,7.46408
2022-11-01T07:46:09.772Z,7.34848
2022-11-01T07:51:11.420Z,7.61494
2022-11-01T07:56:13.057Z,7.54475
2022-11-01T08:01:14.870Z,7.49806
2022-11-01T08:06:16.628Z,7.59906
2022-11-01T08:11:18.366Z,7.65273
2022-11-01T08:16:19.984Z,7.96111
2022-11-01T08:21:21.599Z,7.97445
2022-11-01T08:26:23.169Z,7.60827
2022-11-01T08:31:24.819Z,7.60954
2022-11-01T08:36:26.499Z,7.17539
2022-11-01T08:41:28.104Z,7.39135
2022-11-01T08:46:29.776Z,6.8956
2022-11-01T08:51:31.382Z,7.20525
2022-11-01T08:56:33.011Z,7.42216
2022-11-01T09:01:34.932Z,6.78571
2022-11-01T09:06:36.698Z,6.4748
2022-11-01T09:11:38.414Z,7.34721
2022-11-01T09:16:40.053Z,7.59143
2022-11-01T09:21:41.670Z,7.10298
2022-11-01T09:26:43.438Z,7.40247
2022-11-01T09:31:45.122Z,6.79175
2022-11-01T09:36:47.146Z,7.05535
2022-11-01T09:41:48.819Z,7.08393
2022-11-01T09:46:50.532Z,7.60064
2022-11-01T09:51:52.148Z,7.66797
2022-11-01T09:56:53.871Z,7.6883
2022-11-01T10:01:55.847Z,7.74356
2022-11-01T10:06:57.584Z,7.72006
2022-11-01T10:11:59.184Z,7.61938
2022-11-01T10:17:00.791Z,7.7388
2022-11-01T10:22:02.437Z,7.55618
2022-11-01T10:27:04.084Z,6.80985
2022-11-01T10:32:05.785Z,7.30846
2022-11-01T10:37:07.457Z,7.52156
2022-11-01T10:42:09.005Z,6.68694
2022-11-01T10:47:10.614Z,7.11664
2022-11-01T10:52:12.228Z,7.27543
2022-11-01T10:57:13.873Z,7.53109
2022-11-01T11:02:15.886Z,7.32339
2022-11-01T11:07:21.450Z,7.18587
2022-11-01T11:12:24.871Z,6.64979
2022-11-01T11:17:26.457Z,6.12736
2022-11-01T11:22:28.127Z,6.86702
2022-11-01T11:27:29.826Z,6.20866
2022-11-01T11:32:31.500Z,6.15658
2022-11-01T11:37:33.119Z,6.13022
2022-11-01T11:42:34.929Z,5.75737
2022-11-01T11:47:36.563Z,5.76658
2022-11-01T11:52:38.763Z,5.25845
2022-11-01T11:57:40.691Z,5.86408
2022-11-01T12:02:42.513Z,5.93744
2022-11-01T12:07:44.189Z,5.44233
2022-11-01T12:12:45.840Z,5.70529
2022-11-01T12:17:47.509Z,5.93554
2022-11-01T12:22:49.115Z,6.01493
2022-11-01T12:27:50.721Z,6.26456
2022-11-01T12:32:52.321Z,5.88028
2022-11-01T12:37:53.975Z,6.1715
2022-11-01T12:42:55.594Z,6.41795
2022-11-01T12:47:57.919Z,6.50751
2022-11-01T12:52:59.888Z,6.53419
2022-11-01T12:58:01.790Z,6.14991
2022-11-01T13:03:03.753Z,5.41597
2022-11-01T13:08:05.698Z,5.57413
2022-11-01T13:13:07.313Z,5.53348
2022-11-01T13:18:09.200Z,5.84566
2022-11-01T13:23:10.897Z,5.53761
2022-11-01T13:28:12.479Z,5.65035
2022-11-01T13:33:14.147Z,5.691
2022-11-01T13:38:15.726Z,5.5538
2022-11-01T13:43:17.345Z,6.04638
2022-11-01T13:48:18.913Z,5.96984
2022-11-01T13:53:20.561Z,5.97873
2022-11-01T13:58:22.172Z,5.82184
2022-11-01T14:03:23.737Z,6.27599
2022-11-01T14:08:25.344Z,6.17436
2022-11-01T14:13:27.002Z,6.1118
2022-11-01T14:18:28.623Z,6.32394
2022-11-01T14:23:30.293Z,6.13562
2022-11-01T14:28:32.006Z,5.53062
2022-11-01T14:33:33.627Z,5.65924
2022-11-01T14:38:35.426Z,5.48394
2022-11-01T14:43:37.020Z,5.93014
2022-11-01T14:48:38.644Z,5.57222
2022-11-01T14:53:40.364Z,5.22479
2022-11-01T14:58:41.981Z,5.691
2022-11-01T15:03:43.756Z,5.7434
2022-11-01T15:08:45.477Z,5.50903
2022-11-01T15:13:47.086Z,4.7716
2022-11-01T15:18:48.862Z,4.61472
2022-11-01T15:23:50.476Z,4.56073
2022-11-01T15:28:52.121Z,4.3975
2022-11-01T15:33:53.786Z,4.73635
2022-11-01T15:38:55.399Z,4.99327
2022-11-01T15:43:57.106Z,4.84528
2022-11-01T15:48:58.725Z,4.96564
2022-11-01T15:54:00.328Z,4.83702
2022-11-01T15:59:01.947Z,5.38136
2022-11-01T16:04:03.704Z,5.24257
2022-11-01T16:09:05.347Z,4.92849
2022-11-01T16:14:06.945Z,5.22511
2022-11-01T16:19:08.614Z,5.01296
2022-11-01T16:24:10.232Z,5.49664
2022-11-01T16:29:11.824Z,5.80406
2022-11-01T16:34:13.401Z,5.56333
2022-11-01T16:39:15.017Z,5.41089
2022-11-01T16:44:16.748Z,5.61414
2022-11-01T16:49:18.431Z,5.52617
2022-11-01T16:54:20.059Z,5.93236
2022-11-01T16:59:21.713Z,5.42074
2022-11-01T17:04:23.317Z,5.58143
2022-11-01T17:09:25.016Z,5.63892
2022-11-01T17:14:26.797Z,6.00001
2022-11-01T17:19:28.434Z,5.86345
2022-11-01T17:24:30.154Z,5.86948
2022-11-01T17:29:31.766Z,5.53348
2022-11-01T17:39:36.016Z,5.23305
2022-11-01T17:44:37.643Z,5.42899
2022-11-01T17:49:39.282Z,5.49219
2022-11-01T17:54:40.893Z,4.91293
2022-11-01T17:59:42.604Z,5.73768
2022-11-01T18:04:44.207Z,6.16166
2022-11-01T18:09:45.837Z,6.01303
2022-11-01T18:14:47.691Z,5.5646
2022-11-01T18:19:49.341Z,6.07051
2022-11-01T18:24:51.010Z,6.21374
2022-11-01T18:29:52.714Z,5.51061
2022-11-01T18:34:54.337Z,5.20478
2022-11-01T18:39:56.068Z,5.9565
2022-11-01T18:44:57.903Z,6.21406
2022-11-01T18:49:59.487Z,6.30775
2022-11-01T18:55:01.138Z,6.41414
2022-11-01T19:00:02.781Z,6.27821
2022-11-01T19:05:04.512Z,6.14483
2022-11-01T19:10:06.237Z,5.86122
2022-11-01T19:15:07.895Z,5.33594
2022-11-01T19:20:09.541Z,5.89552
2022-11-01T19:25:11.865Z,5.43916
2022-11-01T19:30:13.549Z,5.69545
2022-11-01T19:35:20.906Z,5.74658
2022-11-01T19:40:27.502Z,5.44551
2022-11-01T19:45:29.678Z,5.11395
2022-11-01T19:50:31.291Z,5.31276
2022-11-01T19:55:32.872Z,5.43154
2022-11-01T20:00:34.443Z,5.69291
2022-11-01T20:05:36.113Z,5.71291
2022-11-01T20:10:37.701Z,6.19119
2022-11-01T20:15:39.286Z,6.44145
2022-11-01T20:20:41.130Z,6.40525
2022-11-01T20:25:42.803Z,6.054
2022-11-01T20:30:44.407Z,5.89266
2022-11-01T20:35:46.032Z,5.66178
2022-11-01T20:40:47.653Z,5.68687
2022-11-01T20:45:49.298Z,5.59509
2022-11-01T20:50:50.896Z,5.86504
2022-11-01T20:55:52.513Z,5.98603
2022-11-01T21:00:54.145Z,6.27313
2022-11-01T21:05:55.806Z,6.32966
2022-11-01T21:10:57.442Z,6.2582
2022-11-01T21:15:59.130Z,6.33411
2022-11-01T21:21:00.755Z,6.34078
2022-11-01T21:26:02.348Z,6.16293
2022-11-01T21:31:03.948Z,6.30076
2022-11-01T21:36:05.624Z,6.69361
2022-11-01T21:41:07.249Z,5.82343
2022-11-01T21:46:08.882Z,6.14324
2022-11-01T21:51:10.558Z,6.87273
2022-11-01T21:56:12.171Z,6.78762
2022-11-01T22:01:13.896Z,6.91878
2022-11-01T22:06:15.625Z,6.56753
2022-11-01T22:11:20.611Z,6.91434
2022-11-01T22:16:25.163Z,6.26487
2022-11-01T22:21:26.768Z,6.73077
2022-11-01T22:26:28.366Z,6.28869
2022-11-01T22:31:30.037Z,5.9727
2022-11-01T22:36:31.638Z,5.78596
2022-11-01T22:41:33.902Z,6.23756
2022-11-01T22:46:35.726Z,6.22867
2022-11-01T22:51:37.363Z,6.39477
2022-11-01T22:56:38.972Z,5.8825
2022-11-01T23:01:40.759Z,6.46463
2022-11-01T23:06:42.497Z,6.31124
2022-11-01T23:11:44.163Z,6.6428
2022-11-01T23:16:45.771Z,6.52466
2022-11-01T23:21:47.391Z,5.89902
2022-11-01T23:26:49.084Z,6.027
2022-11-01T23:31:50.929Z,6.38619
2022-11-01T23:36:52.519Z,6.45415
2022-11-01T23:41:54.154Z,6.34173
2022-11-01T23:46:55.761Z,6.08131
2022-11-01T23:51:57.359Z,6.35602
2022-11-01T23:56:58.975Z,5.77262
